Time,TemperatureF,DewpointF,PressureIn,WindDirection,WindDirectionDegrees,WindSpeedMPH,WindSpeedGustMPH,Humidity,HourlyPrecipIn,Conditions,Clouds,dailyrainin,SoftwareType,DateUTC
2015-01-25 00:00:00,51.3,49.6,30.11,South,180,0.0,0.0,94,0.00,,,0.00,meteobridge,2015-01-25 08:00:00,
2015-01-25 00:06:00,51.3,49.6,30.12,South,179,0.0,0.0,94,0.01,,,0.01,meteobridge,2015-01-25 08:06:00,
2015-01-25 00:11:00,51.3,49.6,30.11,South,179,0.0,0.0,94,0.01,,,0.01,meteobridge,2015-01-25 08:11:00,
2015-01-25 00:15:00,51.4,49.8,30.09,South,179,0.0,0.0,94,0.01,,,0.01,meteobridge,2015-01-25 08:15:00,
2015-01-25 00:21:00,51.4,49.8,30.10,South,179,0.0,0.0,94,0.01,,,0.01,meteobridge,2015-01-25 08:21:00,
2015-01-25 00:26:00,51.4,49.8,30.11,South,179,0.0,0.0,94,0.01,,,0.01,meteobridge,2015-01-25 08:26:00,
2015-01-25 00:31:00,51.4,49.8,30.10,South,179,0.0,0.0,94,0.01,,,0.01,meteobridge,2015-01-25 08:31:00,
2015-01-25 00:36:00,51.4,49.8,30.09,South,179,0.0,0.0,94,0.01,,,0.01,meteobridge,2015-01-25 08:36:00,
2015-01-25 00:41:00,51.4,49.8,30.10,South,180,0.0,0.0,94,0.01,,,0.01,meteobridge,2015-01-25 08:41:00,
2015-01-25 00:46:00,51.4,49.8,30.11,South,180,0.0,0.0,94,0.02,,,0.02,meteobridge,2015-01-25 08:46:00,
2015-01-25 00:51:00,51.4,49.8,30.11,South,179,0.0,0.0,94,0.02,,,0.02,meteobridge,2015-01-25 08:51:00,
2015-01-25 00:56:00,51.4,49.8,30.11,South,180,0.0,0.0,94,0.02,,,0.02,meteobridge,2015-01-25 08:56:00,
2015-01-25 01:01:00,51.3,49.6,30.11,South,179,0.0,0.0,94,0.01,,,0.02,meteobridge,2015-01-25 09:01:00,
2015-01-25 01:06:00,51.3,49.6,30.11,South,179,0.0,0.0,94,0.01,,,0.02,meteobridge,2015-01-25 09:06:00,
2015-01-25 01:11:00,51.3,49.6,30.11,South,179,0.0,0.0,94,0.01,,,0.03,meteobridge,2015-01-25 09:11:00,
2015-01-25 01:16:00,51.3,49.6,30.11,South,179,0.0,0.0,94,0.02,,,0.03,meteobridge,2015-01-25 09:16:00,
2015-01-25 01:21:00,51.3,49.6,30.11,South,179,0.0,0.0,94,0.02,,,0.03,meteobridge,2015-01-25 09:21:00,
2015-01-25 01:26:00,51.3,49.6,30.11,South,180,0.0,0.0,94,0.03,,,0.04,meteobridge,2015-01-25 09:26:00,
2015-01-25 01:31:00,51.3,49.6,30.10,South,180,0.0,0.0,94,0.03,,,0.04,meteobridge,2015-01-25 09:31:00,
2015-01-25 01:36:00,51.3,49.6,30.11,South,181,0.0,0.0,94,0.03,,,0.04,meteobridge,2015-01-25 09:36:00,
2015-01-25 01:41:00,51.4,49.8,30.11,South,181,0.0,0.0,94,0.03,,,0.04,meteobridge,2015-01-25 09:41:00,
2015-01-25 01:46:00,51.4,49.8,30.11,South,181,0.0,0.0,94,0.02,,,0.04,meteobridge,2015-01-25 09:46:00,
2015-01-25 01:51:00,51.3,49.6,30.10,South,181,0.0,0.0,94,0.02,,,0.04,meteobridge,2015-01-25 09:51:00,
2015-01-25 01:56:00,51.4,49.8,30.10,South,181,0.0,0.0,94,0.02,,,0.04,meteobridge,2015-01-25 09:56:00,
2015-01-25 02:01:00,51.3,49.6,30.11,South,181,0.0,0.0,94,0.02,,,0.04,meteobridge,2015-01-25 10:01:00,
2015-01-25 02:06:00,51.4,49.8,30.11,South,181,0.0,0.0,94,0.02,,,0.04,meteobridge,2015-01-25 10:06:00,
2015-01-25 02:11:00,51.4,49.8,30.11,South,181,0.0,0.0,94,0.01,,,0.04,meteobridge,2015-01-25 10:11:00,
2015-01-25 02:16:00,51.4,49.8,30.10,South,181,0.0,0.0,94,0.01,,,0.04,meteobridge,2015-01-25 10:16:00,
2015-01-25 02:21:00,51.3,49.6,30.11,South,181,0.0,0.0,94,0.01,,,0.04,meteobridge,2015-01-25 10:21:00,
2015-01-25 02:26:00,51.3,49.6,30.10,South,181,0.0,0.0,94,0.00,,,0.04,meteobridge,2015-01-25 10:26:00,
2015-01-25 02:31:00,51.3,49.6,30.10,South,181,0.0,0.0,94,0.00,,,0.04,meteobridge,2015-01-25 10:31:00,
2015-01-25 02:36:00,51.3,49.6,30.10,South,181,0.0,0.0,94,0.00,,,0.04,meteobridge,2015-01-25 10:36:00,
2015-01-25 02:41:00,51.3,49.6,30.10,South,181,0.0,0.0,94,0.00,,,0.04,meteobridge,2015-01-25 10:41:00,
2015-01-25 02:46:00,51.3,49.6,30.10,South,179,0.0,0.0,94,0.00,,,0.04,meteobridge,2015-01-25 10:46:00,
2015-01-25 02:52:00,51.3,49.6,30.10,South,181,0.0,0.0,94,0.00,,,0.04,meteobridge,2015-01-25 10:52:00,
2015-01-25 02:57:00,51.4,49.8,30.10,South,181,0.0,0.0,94,0.00,,,0.04,meteobridge,2015-01-25 10:57:00,
2015-01-25 03:02:00,51.4,49.8,30.11,South,180,0.0,0.0,94,0.00,,,0.04,meteobridge,2015-01-25 11:02:00,
2015-01-25 03:07:00,51.3,49.6,30.10,South,180,0.0,0.0,94,0.00,,,0.04,meteobridge,2015-01-25 11:07:00,
2015-01-25 03:12:00,51.3,49.6,30.10,South,187,0.0,0.0,94,0.00,,,0.04,meteobridge,2015-01-25 11:12:00,
2015-01-25 03:17:00,51.1,49.5,30.10,SSE,160,0.0,0.0,94,0.00,,,0.04,meteobridge,2015-01-25 11:17:00,
2015-01-25 03:22:00,51.1,49.5,30.10,SSE,159,0.0,0.0,94,0.00,,,0.04,meteobridge,2015-01-25 11:22:00,
2015-01-25 03:27:00,51.1,49.5,30.10,SSE,159,0.0,0.0,94,0.00,,,0.04,meteobridge,2015-01-25 11:27:00,
2015-01-25 03:32:00,51.1,49.5,30.10,SSE,159,0.0,0.0,94,0.00,,,0.04,meteobridge,2015-01-25 11:32:00,
2015-01-25 03:37:00,50.9,49.3,30.10,SSE,160,0.0,0.0,94,0.00,,,0.04,meteobridge,2015-01-25 11:37:00,
2015-01-25 03:42:00,50.9,49.3,30.10,SSE,159,0.0,0.0,94,0.00,,,0.04,meteobridge,2015-01-25 11:42:00,
2015-01-25 03:47:00,50.7,49.1,30.10,SSE,159,0.0,0.0,94,0.00,,,0.04,meteobridge,2015-01-25 11:47:00,
2015-01-25 03:52:00,50.7,49.1,30.10,SSE,160,0.0,0.0,94,0.00,,,0.04,meteobridge,2015-01-25 11:52:00,
2015-01-25 03:57:00,50.7,49.1,30.10,SSW,195,0.0,0.0,94,0.00,,,0.04,meteobridge,2015-01-25 11:57:00,
2015-01-25 04:02:00,50.7,49.1,30.10,SSW,195,0.0,0.0,94,0.00,,,0.04,meteobridge,2015-01-25 12:02:00,
2015-01-25 04:07:00,50.9,49.3,30.10,NNW,333,0.0,0.0,94,0.00,,,0.04,meteobridge,2015-01-25 12:07:00,
2015-01-25 04:12:00,51.1,49.5,30.10,NNW,332,0.0,0.0,94,0.00,,,0.04,meteobridge,2015-01-25 12:12:00,
2015-01-25 04:17:00,50.9,49.3,30.10,NNW,331,0.0,0.0,94,0.00,,,0.04,meteobridge,2015-01-25 12:17:00,
2015-01-25 04:22:00,50.7,49.1,30.10,NW,325,0.0,0.0,94,0.00,,,0.04,meteobridge,2015-01-25 12:22:00,
2015-01-25 04:27:00,50.7,49.1,30.09,SSE,165,0.0,0.0,94,0.00,,,0.04,meteobridge,2015-01-25 12:27:00,
2015-01-25 04:32:00,50.7,49.1,30.09,East,98,0.0,1.0,94,0.00,,,0.04,meteobridge,2015-01-25 12:32:00,
2015-01-25 04:37:00,50.9,49.3,30.10,SE,133,0.0,0.0,94,0.00,,,0.04,meteobridge,2015-01-25 12:37:00,
2015-01-25 04:42:00,50.9,49.3,30.09,South,187,0.0,0.0,94,0.00,,,0.04,meteobridge,2015-01-25 12:42:00,
2015-01-25 04:47:00,50.7,49.1,30.09,SSE,148,0.0,0.0,94,0.00,,,0.04,meteobridge,2015-01-25 12:47:00,
2015-01-25 04:52:00,50.7,49.1,30.09,ESE,120,0.9,2.0,94,0.00,,,0.04,meteobridge,2015-01-25 12:52:00,
2015-01-25 04:57:00,50.5,48.9,30.09,SE,129,0.0,0.0,94,0.00,,,0.04,meteobridge,2015-01-25 12:57:00,
2015-01-25 05:02:00,50.5,48.9,30.09,SE,128,0.0,0.0,94,0.00,,,0.04,meteobridge,2015-01-25 13:02:00,
2015-01-25 05:07:00,50.4,48.7,30.09,SE,129,0.0,0.0,94,0.00,,,0.04,meteobridge,2015-01-25 13:07:00,
2015-01-25 05:12:00,50.2,48.6,30.08,East,89,0.0,2.0,94,0.00,,,0.04,meteobridge,2015-01-25 13:12:00,
2015-01-25 05:17:00,49.8,48.2,30.08,NNW,338,0.0,1.0,94,0.00,,,0.04,meteobridge,2015-01-25 13:17:00,
2015-01-25 05:22:00,49.6,48.0,30.09,NNW,338,0.0,1.0,94,0.00,,,0.04,meteobridge,2015-01-25 13:22:00,
2015-01-25 05:28:00,49.5,47.8,30.09,NW,307,0.0,1.0,94,0.00,,,0.04,meteobridge,2015-01-25 13:28:00,
2015-01-25 05:33:00,49.3,47.7,30.09,West,259,0.0,0.0,94,0.00,,,0.04,meteobridge,2015-01-25 13:33:00,
2015-01-25 05:38:00,49.3,47.7,30.09,South,183,0.9,1.0,94,0.00,,,0.04,meteobridge,2015-01-25 13:38:00,
2015-01-25 05:43:00,49.3,47.7,30.09,SSE,159,0.0,0.0,94,0.00,,,0.04,meteobridge,2015-01-25 13:43:00,
2015-01-25 05:48:00,49.1,47.5,30.09,SSE,165,0.0,1.0,94,0.00,,,0.04,meteobridge,2015-01-25 13:48:00,
2015-01-25 05:53:00,48.7,47.1,30.09,SSE,165,0.0,0.0,94,0.00,,,0.04,meteobridge,2015-01-25 13:53:00,
2015-01-25 05:58:00,48.7,47.1,30.09,SW,223,0.0,0.0,94,0.00,,,0.04,meteobridge,2015-01-25 13:58:00,
2015-01-25 06:03:00,48.9,47.3,30.09,South,186,0.0,1.0,94,0.00,,,0.04,meteobridge,2015-01-25 14:03:00,
2015-01-25 06:08:00,48.9,47.3,30.09,South,179,0.0,0.0,94,0.00,,,0.04,meteobridge,2015-01-25 14:08:00,
2015-01-25 06:13:00,48.7,47.1,30.09,NW,322,0.0,0.0,94,0.00,,,0.04,meteobridge,2015-01-25 14:13:00,
2015-01-25 06:18:00,48.7,47.1,30.09,West,273,0.0,0.0,94,0.00,,,0.04,meteobridge,2015-01-25 14:18:00,
2015-01-25 06:23:00,48.7,47.1,30.09,SSW,205,0.0,0.0,94,0.00,,,0.04,meteobridge,2015-01-25 14:23:00,
2015-01-25 06:28:00,48.7,47.1,30.09,South,187,0.0,1.0,94,0.00,,,0.04,meteobridge,2015-01-25 14:28:00,
2015-01-25 06:33:00,48.9,47.3,30.09,WSW,240,0.0,1.0,94,0.00,,,0.04,meteobridge,2015-01-25 14:33:00,
2015-01-25 06:38:00,49.1,47.5,30.09,SW,235,0.0,0.0,94,0.00,,,0.04,meteobridge,2015-01-25 14:38:00,
2015-01-25 06:43:00,49.1,47.5,30.09,SSE,160,0.0,0.0,94,0.00,,,0.04,meteobridge,2015-01-25 14:43:00,
2015-01-25 06:48:00,49.3,47.7,30.09,SSE,158,0.0,0.0,94,0.00,,,0.04,meteobridge,2015-01-25 14:48:00,
2015-01-25 06:53:00,49.3,47.7,30.09,SSE,165,0.0,0.0,94,0.00,,,0.04,meteobridge,2015-01-25 14:53:00,
2015-01-25 06:58:00,49.3,47.7,30.09,SW,218,0.0,0.0,94,0.00,,,0.04,meteobridge,2015-01-25 14:58:00,
2015-01-25 07:03:00,49.3,47.7,30.09,South,186,0.0,0.0,94,0.00,,,0.04,meteobridge,2015-01-25 15:03:00,
2015-01-25 07:08:00,49.3,47.7,30.09,South,186,0.0,0.0,94,0.00,,,0.04,meteobridge,2015-01-25 15:08:00,
2015-01-25 07:13:00,49.3,47.7,30.09,ESE,115,0.0,2.0,94,0.00,,,0.04,meteobridge,2015-01-25 15:13:00,
2015-01-25 07:18:00,49.1,47.5,30.09,South,191,0.0,2.0,94,0.00,,,0.04,meteobridge,2015-01-25 15:18:00,